sensor_id;sensor_type;location;lat;lon;timestamp;pressure;altitude;pressure_sealevel;temperature;humidity
32452;BME280;45528;52.102;5.242;2023-03-01T00:01:10;102820.0;;;5.04;56.83
32452;BME280;45528;52.102;5.242;2023-03-01T00:02:49;102817.0;;;5.01;57.04
32452;BME280;45528;52.102;5.242;2023-03-01T00:06:04;102822.0;;;4.87;57.51
32452;BME280;45528;52.102;5.242;2023-03-01T00:07:40;102825.0;;;5.08;57.01
32452;BME280;45528;52.102;5.242;2023-03-01T00:09:16;102821.0;;;5.14;56.82
32452;BME280;45528;52.102;5.242;2023-03-01T00:12:39;102821.0;;;5.08;56.94
32452;BME280;45528;52.102;5.242;2023-03-01T00:14:16;102821.0;;;5.03;57.04
32452;BME280;45528;52.102;5.242;2023-03-01T00:15:52;102822.0;;;4.99;57.35
32452;BME280;45528;52.102;5.242;2023-03-01T00:17:28;102823.0;;;5.09;57.04
32452;BME280;45528;52.102;5.242;2023-03-01T00:20:41;102820.0;;;5.12;56.99
32452;BME280;45528;52.102;5.242;2023-03-01T00:22:17;102819.0;;;5.07;57.54
32452;BME280;45528;52.102;5.242;2023-03-01T00:23:54;102817.0;;;4.91;58.01
32452;BME280;45528;52.102;5.242;2023-03-01T00:27:07;102819.0;;;4.91;57.6
32452;BME280;45528;52.102;5.242;2023-03-01T00:28:43;102813.00000000001;;;4.89;58.01
32452;BME280;45528;52.102;5.242;2023-03-01T00:30:20;102813.00000000001;;;4.93;57.87
32452;BME280;45528;52.102;5.242;2023-03-01T00:33:33;102815.00000000001;;;4.95;57.46
32452;BME280;45528;52.102;5.242;2023-03-01T00:35:09;102813.00000000001;;;4.93;57.73
32452;BME280;45528;52.102;5.242;2023-03-01T00:36:46;102808.99999999999;;;4.88;57.92
32452;BME280;45528;52.102;5.242;2023-03-01T00:38:22;102804.0;;;4.8;58.26
32452;BME280;45528;52.102;5.242;2023-03-01T00:41:34;102805.0;;;4.79;58.3
32452;BME280;45528;52.102;5.242;2023-03-01T00:43:10;102804.0;;;4.79;58.21
32452;BME280;45528;52.102;5.242;2023-03-01T00:44:46;102805.0;;;4.74;58.26
32452;BME280;45528;52.102;5.242;2023-03-01T00:48:02;102806.0;;;4.76;58.17
32452;BME280;45528;52.102;5.242;2023-03-01T00:49:38;102808.0;;;4.71;58.21
32452;BME280;45528;52.102;5.242;2023-03-01T00:51:15;102807.0;;;4.72;58.42
32452;BME280;45528;52.102;5.242;2023-03-01T00:54:30;102808.0;;;4.82;58.27
32452;BME280;45528;52.102;5.242;2023-03-01T00:56:09;102806.0;;;4.83;58.37
32452;BME280;45528;52.102;5.242;2023-03-01T00:57:45;102805.0;;;4.75;58.28
32452;BME280;45528;52.102;5.242;2023-03-01T00:59:22;102804.0;;;4.7;58.44
32452;BME280;45528;52.102;5.242;2023-03-01T01:02:34;102807.0;;;4.74;58.46
32452;BME280;45528;52.102;5.242;2023-03-01T01:04:12;102804.0;;;4.74;58.51
32452;BME280;45528;52.102;5.242;2023-03-01T01:05:49;102799.0;;;4.75;58.6
32452;BME280;45528;52.102;5.242;2023-03-01T01:09:03;102798.0;;;4.7;58.62
32452;BME280;45528;52.102;5.242;2023-03-01T01:10:43;102797.0;;;4.72;59.04
32452;BME280;45528;52.102;5.242;2023-03-01T01:12:20;102799.0;;;4.71;58.8
32452;BME280;45528;52.102;5.242;2023-03-01T01:13:57;102794.0;;;4.76;58.41
32452;BME280;45528;52.102;5.242;2023-03-01T01:17:10;102792.0;;;4.64;58.63
32452;BME280;45528;52.102;5.242;2023-03-01T01:18:46;102789.00000000001;;;4.59;58.65
32452;BME280;45528;52.102;5.242;2023-03-01T01:20:22;102786.99999999999;;;4.2;59.02
32452;BME280;45528;52.102;5.242;2023-03-01T01:23:35;102782.0;;;4.7;58.47
32452;BME280;45528;52.102;5.242;2023-03-01T01:25:12;102778.0;;;4.83;57.97
32452;BME280;45528;52.102;5.242;2023-03-01T01:26:48;102773.0;;;4.78;58.03
32452;BME280;45528;52.102;5.242;2023-03-01T01:30:01;102769.0;;;4.8;57.82
32452;BME280;45528;52.102;5.242;2023-03-01T01:31:40;102769.0;;;4.76;57.86
32452;BME280;45528;52.102;5.242;2023-03-01T01:33:17;102767.0;;;4.61;58.32
32452;BME280;45528;52.102;5.242;2023-03-01T01:34:54;102763.00000000001;;;4.68;58.15
32452;BME280;45528;52.102;5.242;2023-03-01T01:38:09;102766.00000000001;;;4.67;58.13
32452;BME280;45528;52.102;5.242;2023-03-01T01:39:45;102761.99999999999;;;4.57;58.15
32452;BME280;45528;52.102;5.242;2023-03-01T01:41:22;102761.99999999999;;;4.74;57.87
32452;BME280;45528;52.102;5.242;2023-03-01T01:44:35;102758.99999999999;;;4.7;58.31
32452;BME280;45528;52.102;5.242;2023-03-01T01:46:19;102763.00000000001;;;4.62;58.3
32452;BME280;45528;52.102;5.242;2023-03-01T01:48:00;102761.99999999999;;;4.66;58.1
32452;BME280;45528;52.102;5.242;2023-03-01T01:49:42;102758.99999999999;;;4.64;57.92
32452;BME280;45528;52.102;5.242;2023-03-01T01:53:01;102759.99999999999;;;4.71;57.66
32452;BME280;45528;52.102;5.242;2023-03-01T01:54:42;102758.99999999999;;;4.61;58.15
32452;BME280;45528;52.102;5.242;2023-03-01T01:56:23;102758.99999999999;;;4.49;58.13
32452;BME280;45528;52.102;5.242;2023-03-01T01:58:02;102750.0;;;4.59;57.9
32452;BME280;45528;52.102;5.242;2023-03-01T02:01:26;102750.0;;;4.53;58.07
32452;BME280;45528;52.102;5.242;2023-03-01T02:03:05;102751.0;;;4.49;58.27
32452;BME280;45528;52.102;5.242;2023-03-01T02:04:44;102752.0;;;4.43;58.45
32452;BME280;45528;52.102;5.242;2023-03-01T02:06:26;102745.0;;;4.36;58.83
32452;BME280;45528;52.102;5.242;2023-03-01T02:09:46;102744.0;;;4.33;58.78
32452;BME280;45528;52.102;5.242;2023-03-01T02:11:25;102742.0;;;4.14;59.07
32452;BME280;45528;52.102;5.242;2023-03-01T02:13:03;102747.0;;;4.33;58.71
32452;BME280;45528;52.102;5.242;2023-03-01T02:14:40;102742.0;;;4.33;58.87
32452;BME280;45528;52.102;5.242;2023-03-01T02:17:54;102748.0;;;4.3;58.45
32452;BME280;45528;52.102;5.242;2023-03-01T02:19:41;102744.0;;;4.04;59.08
32452;BME280;45528;52.102;5.242;2023-03-01T02:21:41;102742.0;;;4.41;58.76
32452;BME280;45528;52.102;5.242;2023-03-01T02:23:25;102743.0;;;4.34;58.92
32452;BME280;45528;52.102;5.242;2023-03-01T02:26:53;102745.0;;;4.26;59.1
32452;BME280;45528;52.102;5.242;2023-03-01T02:28:32;102743.0;;;4.22;59.08
32452;BME280;45528;52.102;5.242;2023-03-01T02:30:10;102743.0;;;4.28;58.73
32452;BME280;45528;52.102;5.242;2023-03-01T02:31:47;102741.00000000001;;;4.3;58.6
32452;BME280;45528;52.102;5.242;2023-03-01T02:33:24;102745.0;;;4.28;58.53
32452;BME280;45528;52.102;5.242;2023-03-01T02:36:40;102741.00000000001;;;4.05;58.87
32452;BME280;45528;52.102;5.242;2023-03-01T02:38:18;102738.00000000001;;;4.32;58.72
32452;BME280;45528;52.102;5.242;2023-03-01T02:39:58;102736.99999999999;;;4.32;58.54
32452;BME280;45528;52.102;5.242;2023-03-01T02:43:19;102733.99999999999;;;4.25;58.71
32452;BME280;45528;52.102;5.242;2023-03-01T02:44:58;102733.0;;;4.24;58.65
32452;BME280;45528;52.102;5.242;2023-03-01T02:46:41;102732.0;;;4.37;58.22
32452;BME280;45528;52.102;5.242;2023-03-01T02:48:19;102725.0;;;4.38;58.11
32452;BME280;45528;52.102;5.242;2023-03-01T02:51:45;102723.0;;;4.45;57.88
32452;BME280;45528;52.102;5.242;2023-03-01T02:53:27;102724.0;;;4.42;57.83
32452;BME280;45528;52.102;5.242;2023-03-01T02:55:13;102719.0;;;4.53;57.6
32452;BME280;45528;52.102;5.242;2023-03-01T02:56:50;102720.0;;;4.53;57.44
32452;BME280;45528;52.102;5.242;2023-03-01T03:00:06;102717.0;;;4.49;57.51
32452;BME280;45528;52.102;5.242;2023-03-01T03:01:44;102716.00000000001;;;4.42;57.48
32452;BME280;45528;52.102;5.242;2023-03-01T03:03:21;102715.00000000001;;;4.36;57.71
32452;BME280;45528;52.102;5.242;2023-03-01T03:04:57;102714.00000000001;;;4.18;58.25
32452;BME280;45528;52.102;5.242;2023-03-01T03:08:10;102708.99999999999;;;4.24;58.24
32452;BME280;45528;52.102;5.242;2023-03-01T03:09:46;102707.0;;;4.14;58.81
32452;BME280;45528;52.102;5.242;2023-03-01T03:11:22;102711.99999999999;;;4.07;58.84
32452;BME280;45528;52.102;5.242;2023-03-01T03:14:37;102706.0;;;4.17;58.85
32452;BME280;45528;52.102;5.242;2023-03-01T03:16:13;102708.0;;;4.17;58.53
32452;BME280;45528;52.102;5.242;2023-03-01T03:17:51;102708.0;;;4.1;58.64
32452;BME280;45528;52.102;5.242;2023-03-01T03:19:28;102707.0;;;4.07;58.7
32452;BME280;45528;52.102;5.242;2023-03-01T03:22:43;102707.0;;;4.12;58.59
32452;BME280;45528;52.102;5.242;2023-03-01T03:24:19;102705.0;;;4.13;58.61
32452;BME280;45528;52.102;5.242;2023-03-01T03:25:55;102702.0;;;4.12;58.9
32452;BME280;45528;52.102;5.242;2023-03-01T03:29:08;102697.0;;;4.16;58.84
32452;BME280;45528;52.102;5.242;2023-03-01T03:30:44;102692.0;;;4.17;58.55
32452;BME280;45528;52.102;5.242;2023-03-01T03:32:20;102689.00000000001;;;4.2;58.52
32452;BME280;45528;52.102;5.242;2023-03-01T03:35:37;102690.00000000001;;;4.28;58.07
32452;BME280;45528;52.102;5.242;2023-03-01T03:37:15;102692.0;;;4.32;58.02
32452;BME280;45528;52.102;5.242;2023-03-01T03:38:52;102693.0;;;4.32;58.03
32452;BME280;45528;52.102;5.242;2023-03-01T03:40:31;102695.0;;;4.22;57.89
32452;BME280;45528;52.102;5.242;2023-03-01T03:43:44;102690.00000000001;;;4.18;58.05
32452;BME280;45528;52.102;5.242;2023-03-01T03:45:20;102689.00000000001;;;4.18;58.18
32452;BME280;45528;52.102;5.242;2023-03-01T03:46:56;102689.00000000001;;;4.1;58.07
32452;BME280;45528;52.102;5.242;2023-03-01T03:50:11;102690.00000000001;;;4.09;57.89
32452;BME280;45528;52.102;5.242;2023-03-01T03:51:48;102686.99999999999;;;4.12;57.95
32452;BME280;45528;52.102;5.242;2023-03-01T03:53:26;102683.0;;;4.0;58.42
32452;BME280;45528;52.102;5.242;2023-03-01T03:55:04;102677.0;;;3.94;58.54
32452;BME280;45528;52.102;5.242;2023-03-01T03:58:17;102676.0;;;3.94;58.49
32452;BME280;45528;52.102;5.242;2023-03-01T03:59:54;102676.0;;;3.97;58.72
32452;BME280;45528;52.102;5.242;2023-03-01T04:01:31;102678.0;;;3.99;58.69
32452;BME280;45528;52.102;5.242;2023-03-01T04:04:45;102673.0;;;3.89;59.3
32452;BME280;45528;52.102;5.242;2023-03-01T04:06:21;102682.0;;;3.75;59.48
32452;BME280;45528;52.102;5.242;2023-03-01T04:07:58;102684.99999999999;;;3.71;60.09
32452;BME280;45528;52.102;5.242;2023-03-01T04:11:12;102688.00000000001;;;3.81;60.05
32452;BME280;45528;52.102;5.242;2023-03-01T04:12:48;102688.00000000001;;;3.83;59.73
32452;BME280;45528;52.102;5.242;2023-03-01T04:14:24;102684.99999999999;;;3.8;60.01
32452;BME280;45528;52.102;5.242;2023-03-01T04:16:01;102686.99999999999;;;3.78;60.0
32452;BME280;45528;52.102;5.242;2023-03-01T04:19:13;102681.0;;;3.78;60.22
32452;BME280;45528;52.102;5.242;2023-03-01T04:20:49;102691.00000000001;;;3.8;60.36
32452;BME280;45528;52.102;5.242;2023-03-01T04:22:26;102690.00000000001;;;3.83;60.07
32452;BME280;45528;52.102;5.242;2023-03-01T04:25:41;102683.99999999999;;;3.8;59.83
32452;BME280;45528;52.102;5.242;2023-03-01T04:27:17;102684.99999999999;;;3.77;60.06
32452;BME280;45528;52.102;5.242;2023-03-01T04:28:54;102686.99999999999;;;3.82;60.08
32452;BME280;45528;52.102;5.242;2023-03-01T04:32:06;102678.0;;;3.84;59.71
32452;BME280;45528;52.102;5.242;2023-03-01T04:33:44;102684.99999999999;;;3.99;59.46
32452;BME280;45528;52.102;5.242;2023-03-01T04:35:20;102688.00000000001;;;3.96;59.53
32452;BME280;45528;52.102;5.242;2023-03-01T04:36:56;102688.00000000001;;;4.0;59.37
32452;BME280;45528;52.102;5.242;2023-03-01T04:40:10;102691.00000000001;;;3.93;59.7
32452;BME280;45528;52.102;5.242;2023-03-01T04:41:46;102686.99999999999;;;3.79;59.98
32452;BME280;45528;52.102;5.242;2023-03-01T04:43:23;102688.00000000001;;;3.85;59.8
32452;BME280;45528;52.102;5.242;2023-03-01T04:46:36;102682.0;;;3.83;60.23
32452;BME280;45528;52.102;5.242;2023-03-01T04:48:12;102678.0;;;3.82;60.21
32452;BME280;45528;52.102;5.242;2023-03-01T04:49:49;102679.0;;;3.77;60.24
32452;BME280;45528;52.102;5.242;2023-03-01T04:53:01;102668.0;;;3.75;60.56
32452;BME280;45528;52.102;5.242;2023-03-01T04:54:38;102674.0;;;3.69;60.39
32452;BME280;45528;52.102;5.242;2023-03-01T04:56:15;102667.0;;;3.76;60.17
32452;BME280;45528;52.102;5.242;2023-03-01T04:57:52;102663.00000000001;;;3.83;59.79
32452;BME280;45528;52.102;5.242;2023-03-01T05:01:09;102655.0;;;3.85;59.96
32452;BME280;45528;52.102;5.242;2023-03-01T05:02:48;102658.0;;;3.92;59.57
32452;BME280;45528;52.102;5.242;2023-03-01T05:04:24;102655.0;;;3.88;59.62
32452;BME280;45528;52.102;5.242;2023-03-01T05:07:36;102657.0;;;3.86;59.55
32452;BME280;45528;52.102;5.242;2023-03-01T05:09:12;102651.0;;;3.78;60.0
32452;BME280;45528;52.102;5.242;2023-03-01T05:10:50;102649.0;;;3.75;60.23
32452;BME280;45528;52.102;5.242;2023-03-01T05:12:28;102646.0;;;3.75;60.11
32452;BME280;45528;52.102;5.242;2023-03-01T05:15:42;102641.00000000001;;;3.73;60.42
32452;BME280;45528;52.102;5.242;2023-03-01T05:17:18;102642.0;;;3.74;60.22
32452;BME280;45528;52.102;5.242;2023-03-01T05:18:54;102642.0;;;3.82;60.0
32452;BME280;45528;52.102;5.242;2023-03-01T05:22:07;102639.00000000001;;;3.82;59.8
32452;BME280;45528;52.102;5.242;2023-03-01T05:23:43;102633.99999999999;;;3.84;59.75
32452;BME280;45528;52.102;5.242;2023-03-01T05:25:20;102631.0;;;3.8;59.99
32452;BME280;45528;52.102;5.242;2023-03-01T05:28:34;102626.0;;;3.73;60.21
32452;BME280;45528;52.102;5.242;2023-03-01T05:30:12;102622.0;;;3.8;59.54
32452;BME280;45528;52.102;5.242;2023-03-01T05:31:48;102617.0;;;3.98;59.28
32452;BME280;45528;52.102;5.242;2023-03-01T05:33:25;102615.00000000001;;;4.05;58.95
32452;BME280;45528;52.102;5.242;2023-03-01T05:36:40;102613.00000000001;;;4.04;59.15
32452;BME280;45528;52.102;5.242;2023-03-01T05:38:16;102614.00000000001;;;4.07;58.84
32452;BME280;45528;52.102;5.242;2023-03-01T05:39:52;102615.00000000001;;;4.07;58.54
32452;BME280;45528;52.102;5.242;2023-03-01T05:43:05;102608.99999999999;;;4.03;58.54
32452;BME280;45528;52.102;5.242;2023-03-01T05:44:41;102608.99999999999;;;3.91;58.65
32452;BME280;45528;52.102;5.242;2023-03-01T05:46:18;102608.99999999999;;;3.95;58.79
32452;BME280;45528;52.102;5.242;2023-03-01T05:49:31;102599.0;;;4.03;58.53
32452;BME280;45528;52.102;5.242;2023-03-01T05:51:07;102600.0;;;3.99;58.57
32452;BME280;45528;52.102;5.242;2023-03-01T05:52:44;102601.0;;;3.97;58.58
32452;BME280;45528;52.102;5.242;2023-03-01T05:54:21;102601.0;;;3.99;58.6
32452;BME280;45528;52.102;5.242;2023-03-01T05:57:35;102599.0;;;4.01;58.46
32452;BME280;45528;52.102;5.242;2023-03-01T05:59:11;102598.0;;;4.04;58.2
32452;BME280;45528;52.102;5.242;2023-03-01T06:00:48;102597.0;;;4.0;58.14
32452;BME280;45528;52.102;5.242;2023-03-01T06:04:01;102595.0;;;4.0;58.17
32452;BME280;45528;52.102;5.242;2023-03-01T06:05:38;102593.0;;;4.03;57.89
32452;BME280;45528;52.102;5.242;2023-03-01T06:07:15;102596.0;;;3.97;57.93
32452;BME280;45528;52.102;5.242;2023-03-01T06:10:28;102603.0;;;3.99;58.02
32452;BME280;45528;52.102;5.242;2023-03-01T06:12:05;102602.0;;;3.93;58.23
32452;BME280;45528;52.102;5.242;2023-03-01T06:13:43;102600.0;;;3.88;58.77
32452;BME280;45528;52.102;5.242;2023-03-01T06:15:20;102599.0;;;3.75;59.37
32452;BME280;45528;52.102;5.242;2023-03-01T06:18:34;102597.0;;;3.67;59.25
32452;BME280;45528;52.102;5.242;2023-03-01T06:20:13;102600.0;;;3.63;59.45
32452;BME280;45528;52.102;5.242;2023-03-01T06:21:50;102603.0;;;3.73;59.05
32452;BME280;45528;52.102;5.242;2023-03-01T06:25:03;102602.0;;;3.79;58.67
32452;BME280;45528;52.102;5.242;2023-03-01T06:26:40;102604.0;;;3.83;58.46
32452;BME280;45528;52.102;5.242;2023-03-01T06:28:16;102608.0;;;3.86;58.71
32452;BME280;45528;52.102;5.242;2023-03-01T06:29:53;102611.99999999999;;;3.87;58.36
32452;BME280;45528;52.102;5.242;2023-03-01T06:33:05;102608.99999999999;;;3.91;58.02
32452;BME280;45528;52.102;5.242;2023-03-01T06:34:41;102608.0;;;3.88;58.35
32452;BME280;45528;52.102;5.242;2023-03-01T06:36:17;102603.0;;;3.97;58.05
32452;BME280;45528;52.102;5.242;2023-03-01T06:39:29;102603.0;;;4.04;57.8
32452;BME280;45528;52.102;5.242;2023-03-01T06:41:07;102604.0;;;4.05;57.75
32452;BME280;45528;52.102;5.242;2023-03-01T06:42:47;102606.0;;;4.03;57.82
32452;BME280;45528;52.102;5.242;2023-03-01T06:46:04;102607.0;;;4.05;57.79
32452;BME280;45528;52.102;5.242;2023-03-01T06:47:40;102606.0;;;4.03;57.72
32452;BME280;45528;52.102;5.242;2023-03-01T06:49:17;102606.0;;;4.12;57.6
32452;BME280;45528;52.102;5.242;2023-03-01T06:50:52;102605.0;;;4.12;57.63
32452;BME280;45528;52.102;5.242;2023-03-01T06:54:07;102606.0;;;4.05;57.86
32452;BME280;45528;52.102;5.242;2023-03-01T06:55:43;102609.99999999999;;;4.04;58.22
32452;BME280;45528;52.102;5.242;2023-03-01T06:57:19;102608.99999999999;;;4.07;58.05
32452;BME280;45528;52.102;5.242;2023-03-01T07:00:32;102605.0;;;4.07;57.81
32452;BME280;45528;52.102;5.242;2023-03-01T07:02:10;102605.0;;;4.1;57.77
32452;BME280;45528;52.102;5.242;2023-03-01T07:03:47;102604.0;;;4.21;57.56
32452;BME280;45528;52.102;5.242;2023-03-01T07:05:23;102606.0;;;4.32;57.3
32452;BME280;45528;52.102;5.242;2023-03-01T07:08:35;102605.0;;;4.32;57.19
32452;BME280;45528;52.102;5.242;2023-03-01T07:10:12;102602.0;;;4.32;57.16
32452;BME280;45528;52.102;5.242;2023-03-01T07:11:49;102601.0;;;4.24;57.57
32452;BME280;45528;52.102;5.242;2023-03-01T07:15:03;102602.0;;;4.32;57.46
32452;BME280;45528;52.102;5.242;2023-03-01T07:16:40;102603.0;;;4.33;57.53
32452;BME280;45528;52.102;5.242;2023-03-01T07:18:16;102602.0;;;4.41;57.27
32452;BME280;45528;52.102;5.242;2023-03-01T07:21:29;102602.0;;;4.45;57.29
32452;BME280;45528;52.102;5.242;2023-03-01T07:23:06;102606.0;;;4.61;57.31
32452;BME280;45528;52.102;5.242;2023-03-01T07:24:43;102604.0;;;4.58;57.41
32452;BME280;45528;52.102;5.242;2023-03-01T07:26:19;102613.00000000001;;;4.57;57.67
32452;BME280;45528;52.102;5.242;2023-03-01T07:29:31;102620.0;;;4.62;57.54
32452;BME280;45528;52.102;5.242;2023-03-01T07:31:07;102619.0;;;4.66;57.66
32452;BME280;45528;52.102;5.242;2023-03-01T07:32:44;102617.0;;;4.75;57.67
32452;BME280;45528;52.102;5.242;2023-03-01T07:35:57;102616.00000000001;;;4.89;57.56
32452;BME280;45528;52.102;5.242;2023-03-01T07:37:33;102620.0;;;5.04;57.46
32452;BME280;45528;52.102;5.242;2023-03-01T07:39:10;102622.0;;;5.12;57.23
32452;BME280;45528;52.102;5.242;2023-03-01T07:42:22;102617.0;;;5.17;57.08
32452;BME280;45528;52.102;5.242;2023-03-01T07:43:59;102616.00000000001;;;5.33;57.08
32452;BME280;45528;52.102;5.242;2023-03-01T07:45:35;102615.00000000001;;;5.35;57.12
32452;BME280;45528;52.102;5.242;2023-03-01T07:48:47;102617.0;;;5.52;57.08
32452;BME280;45528;52.102;5.242;2023-03-01T07:50:23;102624.0;;;5.56;56.74
32452;BME280;45528;52.102;5.242;2023-03-01T07:51:59;102626.0;;;5.67;56.86
32452;BME280;45528;52.102;5.242;2023-03-01T07:53:36;102625.0;;;5.75;56.75
32452;BME280;45528;52.102;5.242;2023-03-01T07:56:50;102623.0;;;5.79;56.64
32452;BME280;45528;52.102;5.242;2023-03-01T07:58:26;102624.0;;;5.8;56.64
32452;BME280;45528;52.102;5.242;2023-03-01T08:00:03;102621.0;;;5.96;56.64
32452;BME280;45528;52.102;5.242;2023-03-01T08:03:17;102624.0;;;6.03;56.44
32452;BME280;45528;52.102;5.242;2023-03-01T08:04:53;102619.0;;;6.12;56.43
32452;BME280;45528;52.102;5.242;2023-03-01T08:06:29;102626.0;;;6.37;56.47
32452;BME280;45528;52.102;5.242;2023-03-01T08:09:42;102627.0;;;6.67;56.12
32452;BME280;45528;52.102;5.242;2023-03-01T08:11:18;102626.0;;;6.88;56.06
32452;BME280;45528;52.102;5.242;2023-03-01T08:12:54;102624.0;;;7.0;55.39
32452;BME280;45528;52.102;5.242;2023-03-01T08:14:30;102628.0;;;7.17;55.25
32452;BME280;45528;52.102;5.242;2023-03-01T08:17:46;102624.0;;;7.28;54.69
32452;BME280;45528;52.102;5.242;2023-03-01T08:19:25;102618.0;;;7.27;54.61
32452;BME280;45528;52.102;5.242;2023-03-01T08:21:03;102618.0;;;7.64;53.76
32452;BME280;45528;52.102;5.242;2023-03-01T08:24:16;102615.00000000001;;;7.83;53.38
32452;BME280;45528;52.102;5.242;2023-03-01T08:25:52;102617.0;;;7.99;52.58
32452;BME280;45528;52.102;5.242;2023-03-01T08:27:28;102618.0;;;7.99;52.48
32452;BME280;45528;52.102;5.242;2023-03-01T08:29:05;102620.0;;;7.99;52.15
32452;BME280;45528;52.102;5.242;2023-03-01T08:32:17;102617.0;;;7.96;52.37
32452;BME280;45528;52.102;5.242;2023-03-01T08:33:56;102617.0;;;8.06;51.63
32452;BME280;45528;52.102;5.242;2023-03-01T08:35:33;102615.00000000001;;;8.4;51.75
32452;BME280;45528;52.102;5.242;2023-03-01T08:38:45;102618.0;;;8.28;51.18
32452;BME280;45528;52.102;5.242;2023-03-01T08:40:22;102617.0;;;8.3;51.31
32452;BME280;45528;52.102;5.242;2023-03-01T08:41:58;102617.0;;;8.66;50.46
32452;BME280;45528;52.102;5.242;2023-03-01T08:45:11;102614.00000000001;;;8.71;49.67
32452;BME280;45528;52.102;5.242;2023-03-01T08:46:47;102611.99999999999;;;8.73;49.8
32452;BME280;45528;52.102;5.242;2023-03-01T08:48:24;102608.99999999999;;;8.98;49.14
32452;BME280;45528;52.102;5.242;2023-03-01T08:50:01;102601.0;;;9.14;48.57
32452;BME280;45528;52.102;5.242;2023-03-01T08:53:15;102607.0;;;8.78;48.06
32452;BME280;45528;52.102;5.242;2023-03-01T08:54:51;102604.0;;;9.19;48.79
32452;BME280;45528;52.102;5.242;2023-03-01T08:56:27;102601.0;;;9.42;46.99
32452;BME280;45528;52.102;5.242;2023-03-01T08:59:39;102595.0;;;9.6;47.09
32452;BME280;45528;52.102;5.242;2023-03-01T09:01:17;102594.0;;;9.44;45.88
32452;BME280;45528;52.102;5.242;2023-03-01T09:02:55;102590.00000000001;;;9.64;45.73
32452;BME280;45528;52.102;5.242;2023-03-01T09:06:07;102583.99999999999;;;9.69;45.25
32452;BME280;45528;52.102;5.242;2023-03-01T09:07:44;102589.00000000001;;;9.25;46.48
32452;BME280;45528;52.102;5.242;2023-03-01T09:09:20;102580.0;;;9.64;44.41
32452;BME280;45528;52.102;5.242;2023-03-01T09:10:56;102582.0;;;9.89;43.26
32452;BME280;45528;52.102;5.242;2023-03-01T09:14:09;102574.0;;;9.64;44.13
32452;BME280;45528;52.102;5.242;2023-03-01T09:15:45;102572.0;;;10.06;43.48
32452;BME280;45528;52.102;5.242;2023-03-01T09:17:21;102567.0;;;10.06;43.85
32452;BME280;45528;52.102;5.242;2023-03-01T09:20:33;102566.00000000001;;;10.41;43.01
32452;BME280;45528;52.102;5.242;2023-03-01T09:22:09;102564.00000000001;;;10.36;42.53
32452;BME280;45528;52.102;5.242;2023-03-01T09:23:47;102563.00000000001;;;10.17;42.03
32452;BME280;45528;52.102;5.242;2023-03-01T09:27:00;102567.0;;;10.31;41.99
32452;BME280;45528;52.102;5.242;2023-03-01T09:28:37;102557.0;;;10.06;41.79
32452;BME280;45528;52.102;5.242;2023-03-01T09:30:14;102559.99999999999;;;9.88;42.25
32452;BME280;45528;52.102;5.242;2023-03-01T09:33:26;102557.0;;;9.92;42.43
32452;BME280;45528;52.102;5.242;2023-03-01T09:35:03;102548.0;;;9.84;41.41
32452;BME280;45528;52.102;5.242;2023-03-01T09:36:40;102541.00000000001;;;10.22;41.57
32452;BME280;45528;52.102;5.242;2023-03-01T09:38:16;102543.0;;;10.59;41.5
32452;BME280;45528;52.102;5.242;2023-03-01T09:41:38;102543.0;;;9.81;41.16
32452;BME280;45528;52.102;5.242;2023-03-01T09:43:40;102544.0;;;10.14;40.69
32452;BME280;45528;52.102;5.242;2023-03-01T09:45:29;102543.0;;;9.42;41.16
32452;BME280;45528;52.102;5.242;2023-03-01T09:47:16;102542.0;;;9.77;41.32
32452;BME280;45528;52.102;5.242;2023-03-01T09:48:56;102533.99999999999;;;9.89;41.14
32452;BME280;45528;52.102;5.242;2023-03-01T09:52:23;102536.99999999999;;;9.93;41.04
32452;BME280;45528;52.102;5.242;2023-03-01T09:54:05;102541.00000000001;;;10.24;40.68
32452;BME280;45528;52.102;5.242;2023-03-01T09:55:44;102533.99999999999;;;10.11;40.57
32452;BME280;45528;52.102;5.242;2023-03-01T09:57:28;102542.0;;;10.46;40.14
32452;BME280;45528;52.102;5.242;2023-03-01T09:59:15;102542.0;;;10.29;40.06
32452;BME280;45528;52.102;5.242;2023-03-01T10:02:49;102542.0;;;10.08;40.17
32452;BME280;45528;52.102;5.242;2023-03-01T10:04:37;102543.0;;;11.12;39.1
32452;BME280;45528;52.102;5.242;2023-03-01T10:06:21;102545.0;;;11.19;38.86
32452;BME280;45528;52.102;5.242;2023-03-01T10:08:06;102548.0;;;10.75;38.72
32452;BME280;45528;52.102;5.242;2023-03-01T10:10:04;102548.0;;;10.42;39.67
32452;BME280;45528;52.102;5.242;2023-03-01T10:11:43;102548.0;;;10.45;39.35
32452;BME280;45528;52.102;5.242;2023-03-01T10:15:09;102550.0;;;10.5;39.57
32452;BME280;45528;52.102;5.242;2023-03-01T10:16:51;102551.0;;;10.61;39.25
32452;BME280;45528;52.102;5.242;2023-03-01T10:18:30;102547.0;;;10.54;39.31
32452;BME280;45528;52.102;5.242;2023-03-01T10:20:17;102540.00000000001;;;10.94;38.46
32452;BME280;45528;52.102;5.242;2023-03-01T10:23:46;102544.0;;;10.42;39.15
32452;BME280;45528;52.102;5.242;2023-03-01T10:25:41;102541.00000000001;;;10.75;39.22
32452;BME280;45528;52.102;5.242;2023-03-01T10:27:23;102529.0;;;10.93;39.18
32452;BME280;45528;52.102;5.242;2023-03-01T10:29:03;102527.0;;;10.91;38.86
32452;BME280;45528;52.102;5.242;2023-03-01T10:30:40;102523.0;;;10.95;38.39
32452;BME280;45528;52.102;5.242;2023-03-01T10:33:55;102527.0;;;11.17;38.81
32452;BME280;45528;52.102;5.242;2023-03-01T10:35:32;102528.0;;;10.76;38.74
32452;BME280;45528;52.102;5.242;2023-03-01T10:37:12;102526.0;;;10.84;38.19
32452;BME280;45528;52.102;5.242;2023-03-01T10:38:50;102519.0;;;11.12;38.01
32452;BME280;45528;52.102;5.242;2023-03-01T10:42:05;102519.0;;;11.16;37.93
32452;BME280;45528;52.102;5.242;2023-03-01T10:43:56;102518.0;;;11.0;37.74
32452;BME280;45528;52.102;5.242;2023-03-01T10:45:34;102522.0;;;11.47;37.22
32452;BME280;45528;52.102;5.242;2023-03-01T10:47:15;102518.0;;;11.8;37.25
32452;BME280;45528;52.102;5.242;2023-03-01T10:51:06;102521.0;;;12.1;35.65